sensor_id;sensor_type;location;lat;lon;timestamp;P1;durP1;ratioP1;P2;durP2;ratioP2
15878;SDS011;61999;51.514;14.614;2023-05-07T00:01:01;9.90;;;8.90;;
15878;SDS011;61999;51.514;14.614;2023-05-07T00:03:29;8.93;;;8.10;;
15878;SDS011;61999;51.514;14.614;2023-05-07T00:05:57;8.90;;;8.10;;
15878;SDS011;61999;51.514;14.614;2023-05-07T00:08:25;8.30;;;7.50;;
15878;SDS011;61999;51.514;14.614;2023-05-07T00:10:53;8.20;;;7.40;;
15878;SDS011;61999;51.514;14.614;2023-05-07T00:13:22;8.90;;;8.00;;
15878;SDS011;61999;51.514;14.614;2023-05-07T00:15:50;7.60;;;6.67;;
15878;SDS011;61999;51.514;14.614;2023-05-07T00:18:18;8.60;;;7.77;;
15878;SDS011;61999;51.514;14.614;2023-05-07T00:20:48;7.53;;;6.83;;
15878;SDS011;61999;51.514;14.614;2023-05-07T00:23:16;7.97;;;7.23;;
15878;SDS011;61999;51.514;14.614;2023-05-07T00:25:44;8.47;;;6.70;;
15878;SDS011;61999;51.514;14.614;2023-05-07T00:28:12;7.37;;;6.67;;
15878;SDS011;61999;51.514;14.614;2023-05-07T00:30:41;6.47;;;5.90;;
15878;SDS011;61999;51.514;14.614;2023-05-07T00:33:09;7.23;;;6.50;;
15878;SDS011;61999;51.514;14.614;2023-05-07T00:35:37;6.40;;;5.90;;
15878;SDS011;61999;51.514;14.614;2023-05-07T00:38:05;6.50;;;5.93;;
15878;SDS011;61999;51.514;14.614;2023-05-07T00:40:33;6.40;;;5.80;;
15878;SDS011;61999;51.514;14.614;2023-05-07T00:43:01;6.80;;;6.20;;
15878;SDS011;61999;51.514;14.614;2023-05-07T00:45:29;7.03;;;6.33;;
15878;SDS011;61999;51.514;14.614;2023-05-07T00:47:59;7.30;;;6.63;;
15878;SDS011;61999;51.514;14.614;2023-05-07T00:50:29;6.87;;;6.27;;
15878;SDS011;61999;51.514;14.614;2023-05-07T00:52:59;7.10;;;6.50;;
15878;SDS011;61999;51.514;14.614;2023-05-07T00:55:27;7.10;;;6.13;;
15878;SDS011;61999;51.514;14.614;2023-05-07T00:57:56;6.60;;;6.00;;
15878;SDS011;61999;51.514;14.614;2023-05-07T01:00:24;7.03;;;6.23;;
15878;SDS011;61999;51.514;14.614;2023-05-07T01:02:53;6.83;;;6.13;;
15878;SDS011;61999;51.514;14.614;2023-05-07T01:05:22;7.33;;;6.60;;
15878;SDS011;61999;51.514;14.614;2023-05-07T01:07:52;8.03;;;7.17;;
15878;SDS011;61999;51.514;14.614;2023-05-07T01:10:22;8.13;;;7.13;;
15878;SDS011;61999;51.514;14.614;2023-05-07T01:12:51;7.60;;;6.90;;
15878;SDS011;61999;51.514;14.614;2023-05-07T01:15:21;8.23;;;7.43;;
15878;SDS011;61999;51.514;14.614;2023-05-07T01:17:49;7.83;;;7.07;;
15878;SDS011;61999;51.514;14.614;2023-05-07T01:20:17;7.30;;;6.63;;
15878;SDS011;61999;51.514;14.614;2023-05-07T01:22:47;8.13;;;7.33;;
15878;SDS011;61999;51.514;14.614;2023-05-07T01:25:16;7.40;;;6.67;;
15878;SDS011;61999;51.514;14.614;2023-05-07T01:27:45;6.67;;;6.00;;
15878;SDS011;61999;51.514;14.614;2023-05-07T01:30:13;7.50;;;6.80;;
15878;SDS011;61999;51.514;14.614;2023-05-07T01:32:45;7.67;;;6.90;;
15878;SDS011;61999;51.514;14.614;2023-05-07T01:35:18;7.13;;;6.33;;
15878;SDS011;61999;51.514;14.614;2023-05-07T01:37:53;6.80;;;6.10;;
15878;SDS011;61999;51.514;14.614;2023-05-07T01:40:22;7.77;;;6.97;;
15878;SDS011;61999;51.514;14.614;2023-05-07T01:42:51;7.43;;;6.73;;
15878;SDS011;61999;51.514;14.614;2023-05-07T01:45:21;6.93;;;6.23;;
15878;SDS011;61999;51.514;14.614;2023-05-07T01:47:50;6.50;;;5.90;;
15878;SDS011;61999;51.514;14.614;2023-05-07T01:50:20;6.80;;;6.20;;
15878;SDS011;61999;51.514;14.614;2023-05-07T01:52:49;6.87;;;6.27;;
15878;SDS011;61999;51.514;14.614;2023-05-07T01:55:19;6.67;;;6.07;;
15878;SDS011;61999;51.514;14.614;2023-05-07T01:57:47;6.53;;;5.47;;
15878;SDS011;61999;51.514;14.614;2023-05-07T02:00:16;6.23;;;5.63;;
15878;SDS011;61999;51.514;14.614;2023-05-07T02:02:45;6.63;;;6.03;;
15878;SDS011;61999;51.514;14.614;2023-05-07T02:05:13;6.33;;;5.83;;
15878;SDS011;61999;51.514;14.614;2023-05-07T02:07:41;6.83;;;6.13;;
15878;SDS011;61999;51.514;14.614;2023-05-07T02:10:09;6.80;;;6.20;;
15878;SDS011;61999;51.514;14.614;2023-05-07T02:12:39;7.63;;;6.93;;
15878;SDS011;61999;51.514;14.614;2023-05-07T02:15:07;7.27;;;6.67;;
15878;SDS011;61999;51.514;14.614;2023-05-07T02:17:38;6.60;;;6.00;;
15878;SDS011;61999;51.514;14.614;2023-05-07T02:20:26;7.47;;;6.83;;
15878;SDS011;61999;51.514;14.614;2023-05-07T02:22:54;7.60;;;6.90;;
15878;SDS011;61999;51.514;14.614;2023-05-07T02:25:22;7.27;;;6.67;;
15878;SDS011;61999;51.514;14.614;2023-05-07T02:27:51;7.07;;;6.43;;
15878;SDS011;61999;51.514;14.614;2023-05-07T02:30:19;7.10;;;6.50;;
15878;SDS011;61999;51.514;14.614;2023-05-07T02:32:48;6.97;;;6.33;;
15878;SDS011;61999;51.514;14.614;2023-05-07T02:35:16;7.50;;;6.90;;
15878;SDS011;61999;51.514;14.614;2023-05-07T02:37:44;7.00;;;6.30;;
15878;SDS011;61999;51.514;14.614;2023-05-07T02:40:12;6.77;;;6.13;;
15878;SDS011;61999;51.514;14.614;2023-05-07T02:42:40;6.90;;;6.20;;
15878;SDS011;61999;51.514;14.614;2023-05-07T02:45:10;7.60;;;6.90;;
15878;SDS011;61999;51.514;14.614;2023-05-07T02:47:38;6.90;;;6.27;;
15878;SDS011;61999;51.514;14.614;2023-05-07T02:50:07;7.93;;;7.23;;
15878;SDS011;61999;51.514;14.614;2023-05-07T02:52:35;7.60;;;6.90;;
15878;SDS011;61999;51.514;14.614;2023-05-07T02:55:03;7.47;;;6.77;;
15878;SDS011;61999;51.514;14.614;2023-05-07T02:57:33;7.07;;;6.47;;
15878;SDS011;61999;51.514;14.614;2023-05-07T03:00:11;8.20;;;6.90;;
15878;SDS011;61999;51.514;14.614;2023-05-07T03:02:41;7.60;;;6.90;;
15878;SDS011;61999;51.514;14.614;2023-05-07T03:05:09;8.17;;;7.37;;
15878;SDS011;61999;51.514;14.614;2023-05-07T03:07:38;7.80;;;7.10;;
15878;SDS011;61999;51.514;14.614;2023-05-07T03:10:06;7.73;;;7.03;;
15878;SDS011;61999;51.514;14.614;2023-05-07T03:12:35;7.93;;;7.23;;
15878;SDS011;61999;51.514;14.614;2023-05-07T03:15:03;7.73;;;7.03;;
15878;SDS011;61999;51.514;14.614;2023-05-07T03:17:33;8.23;;;7.43;;
15878;SDS011;61999;51.514;14.614;2023-05-07T03:20:01;9.60;;;8.53;;
15878;SDS011;61999;51.514;14.614;2023-05-07T03:22:29;9.23;;;7.63;;
15878;SDS011;61999;51.514;14.614;2023-05-07T03:24:57;8.93;;;8.13;;
15878;SDS011;61999;51.514;14.614;2023-05-07T03:27:25;9.23;;;8.23;;
15878;SDS011;61999;51.514;14.614;2023-05-07T03:29:52;9.23;;;8.23;;
15878;SDS011;61999;51.514;14.614;2023-05-07T03:32:20;10.33;;;8.33;;
15878;SDS011;61999;51.514;14.614;2023-05-07T03:34:50;8.20;;;7.23;;
15878;SDS011;61999;51.514;14.614;2023-05-07T03:37:18;8.17;;;7.47;;
15878;SDS011;61999;51.514;14.614;2023-05-07T03:39:46;7.77;;;7.07;;
15878;SDS011;61999;51.514;14.614;2023-05-07T03:42:14;7.80;;;7.10;;
15878;SDS011;61999;51.514;14.614;2023-05-07T03:44:42;8.20;;;7.40;;
15878;SDS011;61999;51.514;14.614;2023-05-07T03:47:10;8.93;;;8.03;;
15878;SDS011;61999;51.514;14.614;2023-05-07T03:49:39;9.53;;;8.63;;
15878;SDS011;61999;51.514;14.614;2023-05-07T03:52:08;8.63;;;7.73;;
15878;SDS011;61999;51.514;14.614;2023-05-07T03:54:36;9.63;;;8.50;;
15878;SDS011;61999;51.514;14.614;2023-05-07T03:57:04;8.23;;;7.30;;
15878;SDS011;61999;51.514;14.614;2023-05-07T03:59:32;8.97;;;8.07;;
15878;SDS011;61999;51.514;14.614;2023-05-07T04:02:00;9.50;;;8.47;;
15878;SDS011;61999;51.514;14.614;2023-05-07T04:04:29;8.40;;;7.47;;
15878;SDS011;61999;51.514;14.614;2023-05-07T04:06:59;7.80;;;7.10;;
15878;SDS011;61999;51.514;14.614;2023-05-07T04:09:28;8.67;;;7.90;;
15878;SDS011;61999;51.514;14.614;2023-05-07T04:11:56;7.93;;;7.23;;
15878;SDS011;61999;51.514;14.614;2023-05-07T04:14:24;8.83;;;7.87;;
15878;SDS011;61999;51.514;14.614;2023-05-07T04:16:52;8.37;;;7.47;;
15878;SDS011;61999;51.514;14.614;2023-05-07T04:19:21;7.37;;;6.77;;
15878;SDS011;61999;51.514;14.614;2023-05-07T04:21:49;7.40;;;6.70;;
15878;SDS011;61999;51.514;14.614;2023-05-07T04:24:17;7.17;;;6.20;;
15878;SDS011;61999;51.514;14.614;2023-05-07T04:26:47;7.17;;;6.37;;
15878;SDS011;61999;51.514;14.614;2023-05-07T04:29:15;7.23;;;6.63;;
15878;SDS011;61999;51.514;14.614;2023-05-07T04:31:43;8.13;;;6.53;;
15878;SDS011;61999;51.514;14.614;2023-05-07T04:34:11;7.00;;;6.40;;
15878;SDS011;61999;51.514;14.614;2023-05-07T04:36:41;6.90;;;6.30;;
15878;SDS011;61999;51.514;14.614;2023-05-07T04:39:10;8.43;;;6.13;;
15878;SDS011;61999;51.514;14.614;2023-05-07T04:41:38;7.00;;;6.30;;
15878;SDS011;61999;51.514;14.614;2023-05-07T04:44:08;7.07;;;6.37;;
15878;SDS011;61999;51.514;14.614;2023-05-07T04:46:37;7.60;;;6.80;;
15878;SDS011;61999;51.514;14.614;2023-05-07T04:49:05;6.97;;;6.27;;
15878;SDS011;61999;51.514;14.614;2023-05-07T04:51:32;6.40;;;5.80;;
15878;SDS011;61999;51.514;14.614;2023-05-07T04:54:01;6.10;;;5.53;;
15878;SDS011;61999;51.514;14.614;2023-05-07T04:56:29;6.80;;;6.17;;
15878;SDS011;61999;51.514;14.614;2023-05-07T04:58:57;5.87;;;5.37;;
15878;SDS011;61999;51.514;14.614;2023-05-07T05:01:27;5.43;;;4.97;;
15878;SDS011;61999;51.514;14.614;2023-05-07T05:03:56;6.97;;;5.63;;
15878;SDS011;61999;51.514;14.614;2023-05-07T05:06:26;5.73;;;5.17;;
15878;SDS011;61999;51.514;14.614;2023-05-07T05:08:54;6.00;;;5.20;;
15878;SDS011;61999;51.514;14.614;2023-05-07T05:11:22;6.63;;;5.97;;
15878;SDS011;61999;51.514;14.614;2023-05-07T05:13:51;6.83;;;6.20;;
15878;SDS011;61999;51.514;14.614;2023-05-07T05:16:19;8.17;;;6.40;;
15878;SDS011;61999;51.514;14.614;2023-05-07T05:18:48;6.77;;;6.10;;
15878;SDS011;61999;51.514;14.614;2023-05-07T05:21:18;7.33;;;6.63;;
15878;SDS011;61999;51.514;14.614;2023-05-07T05:23:46;6.93;;;6.23;;
15878;SDS011;61999;51.514;14.614;2023-05-07T05:26:14;7.03;;;6.33;;
15878;SDS011;61999;51.514;14.614;2023-05-07T05:28:42;7.40;;;6.53;;
15878;SDS011;61999;51.514;14.614;2023-05-07T05:31:10;5.73;;;5.23;;
15878;SDS011;61999;51.514;14.614;2023-05-07T05:33:37;6.47;;;5.87;;
15878;SDS011;61999;51.514;14.614;2023-05-07T05:36:07;6.57;;;5.87;;
15878;SDS011;61999;51.514;14.614;2023-05-07T05:38:38;7.20;;;6.50;;
15878;SDS011;61999;51.514;14.614;2023-05-07T05:41:06;6.03;;;5.53;;
15878;SDS011;61999;51.514;14.614;2023-05-07T05:43:34;6.97;;;6.37;;
15878;SDS011;61999;51.514;14.614;2023-05-07T05:46:02;6.83;;;6.13;;
15878;SDS011;61999;51.514;14.614;2023-05-07T05:48:30;7.30;;;5.63;;
15878;SDS011;61999;51.514;14.614;2023-05-07T05:50:58;6.07;;;5.57;;
15878;SDS011;61999;51.514;14.614;2023-05-07T05:53:28;6.47;;;5.97;;
15878;SDS011;61999;51.514;14.614;2023-05-07T05:55:56;7.67;;;6.93;;
15878;SDS011;61999;51.514;14.614;2023-05-07T05:58:24;8.73;;;7.40;;
15878;SDS011;61999;51.514;14.614;2023-05-07T06:00:52;7.43;;;6.83;;
15878;SDS011;61999;51.514;14.614;2023-05-07T06:03:20;9.53;;;8.63;;
15878;SDS011;61999;51.514;14.614;2023-05-07T06:05:48;8.90;;;8.00;;
15878;SDS011;61999;51.514;14.614;2023-05-07T06:08:16;10.13;;;9.13;;
15878;SDS011;61999;51.514;14.614;2023-05-07T06:10:46;10.67;;;9.57;;
15878;SDS011;61999;51.514;14.614;2023-05-07T06:13:14;9.33;;;8.43;;
15878;SDS011;61999;51.514;14.614;2023-05-07T06:15:42;10.20;;;9.10;;
15878;SDS011;61999;51.514;14.614;2023-05-07T06:18:09;10.37;;;9.37;;
15878;SDS011;61999;51.514;14.614;2023-05-07T06:20:37;10.47;;;9.47;;
15878;SDS011;61999;51.514;14.614;2023-05-07T06:23:05;10.27;;;9.10;;
15878;SDS011;61999;51.514;14.614;2023-05-07T06:25:33;11.03;;;9.83;;
15878;SDS011;61999;51.514;14.614;2023-05-07T06:28:03;11.90;;;9.70;;
15878;SDS011;61999;51.514;14.614;2023-05-07T06:30:31;10.33;;;9.13;;
15878;SDS011;61999;51.514;14.614;2023-05-07T06:32:58;10.93;;;9.50;;
15878;SDS011;61999;51.514;14.614;2023-05-07T06:35:26;11.87;;;9.83;;
15878;SDS011;61999;51.514;14.614;2023-05-07T06:37:54;11.80;;;10.60;;
15878;SDS011;61999;51.514;14.614;2023-05-07T06:40:22;10.50;;;9.50;;
15878;SDS011;61999;51.514;14.614;2023-05-07T06:42:50;12.20;;;11.00;;
15878;SDS011;61999;51.514;14.614;2023-05-07T06:45:20;11.80;;;10.60;;
15878;SDS011;61999;51.514;14.614;2023-05-07T06:47:48;11.67;;;10.47;;
15878;SDS011;61999;51.514;14.614;2023-05-07T06:50:16;12.17;;;10.83;;
15878;SDS011;61999;51.514;14.614;2023-05-07T06:52:44;9.97;;;8.97;;
15878;SDS011;61999;51.514;14.614;2023-05-07T06:55:12;10.90;;;9.80;;
15878;SDS011;61999;51.514;14.614;2023-05-07T06:57:40;10.93;;;9.77;;
15878;SDS011;61999;51.514;14.614;2023-05-07T07:00:09;11.37;;;10.27;;
15878;SDS011;61999;51.514;14.614;2023-05-07T07:02:39;10.53;;;9.53;;
15878;SDS011;61999;51.514;14.614;2023-05-07T07:05:07;10.77;;;9.77;;
15878;SDS011;61999;51.514;14.614;2023-05-07T07:07:35;10.47;;;9.47;;
15878;SDS011;61999;51.514;14.614;2023-05-07T07:10:04;11.17;;;10.07;;
15878;SDS011;61999;51.514;14.614;2023-05-07T07:12:33;10.37;;;9.33;;
15878;SDS011;61999;51.514;14.614;2023-05-07T07:15:01;10.03;;;9.03;;
15878;SDS011;61999;51.514;14.614;2023-05-07T07:17:29;11.17;;;9.97;;
15878;SDS011;61999;51.514;14.614;2023-05-07T07:19:58;11.57;;;10.50;;
15878;SDS011;61999;51.514;14.614;2023-05-07T07:22:26;11.73;;;10.60;;
15878;SDS011;61999;51.514;14.614;2023-05-07T07:24:54;12.90;;;11.60;;
15878;SDS011;61999;51.514;14.614;2023-05-07T07:27:22;13.80;;;12.40;;
15878;SDS011;61999;51.514;14.614;2023-05-07T07:29:50;12.77;;;11.57;;
15878;SDS011;61999;51.514;14.614;2023-05-07T07:32:18;11.97;;;10.67;;
15878;SDS011;61999;51.514;14.614;2023-05-07T07:34:46;11.60;;;10.50;;
15878;SDS011;61999;51.514;14.614;2023-05-07T07:37:15;12.17;;;10.77;;
15878;SDS011;61999;51.514;14.614;2023-05-07T07:39:43;11.30;;;10.13;;
15878;SDS011;61999;51.514;14.614;2023-05-07T07:42:11;10.40;;;9.30;;
15878;SDS011;61999;51.514;14.614;2023-05-07T07:44:39;9.83;;;8.83;;
15878;SDS011;61999;51.514;14.614;2023-05-07T07:47:07;10.90;;;9.50;;
15878;SDS011;61999;51.514;14.614;2023-05-07T07:49:35;10.90;;;9.87;;
15878;SDS011;61999;51.514;14.614;2023-05-07T07:52:03;10.40;;;9.40;;
15878;SDS011;61999;51.514;14.614;2023-05-07T07:54:32;10.27;;;9.27;;
15878;SDS011;61999;51.514;14.614;2023-05-07T07:57:00;9.83;;;8.83;;
15878;SDS011;61999;51.514;14.614;2023-05-07T07:59:28;9.00;;;8.20;;
15878;SDS011;61999;51.514;14.614;2023-05-07T08:01:56;9.73;;;8.83;;
15878;SDS011;61999;51.514;14.614;2023-05-07T08:04:24;9.30;;;7.70;;
15878;SDS011;61999;51.514;14.614;2023-05-07T08:06:52;8.10;;;7.37;;
15878;SDS011;61999;51.514;14.614;2023-05-07T08:09:21;7.77;;;6.97;;
15878;SDS011;61999;51.514;14.614;2023-05-07T08:11:50;6.83;;;6.13;;
15878;SDS011;61999;51.514;14.614;2023-05-07T08:14:18;7.03;;;6.37;;
15878;SDS011;61999;51.514;14.614;2023-05-07T08:16:46;6.20;;;5.60;;
15878;SDS011;61999;51.514;14.614;2023-05-07T08:19:14;5.83;;;5.33;;
15878;SDS011;61999;51.514;14.614;2023-05-07T08:21:42;6.20;;;5.67;;
15878;SDS011;61999;51.514;14.614;2023-05-07T08:24:10;5.73;;;5.23;;
15878;SDS011;61999;51.514;14.614;2023-05-07T08:26:38;5.80;;;5.20;;
15878;SDS011;61999;51.514;14.614;2023-05-07T08:29:07;4.90;;;4.33;;
15878;SDS011;61999;51.514;14.614;2023-05-07T08:31:35;5.03;;;4.63;;
15878;SDS011;61999;51.514;14.614;2023-05-07T08:34:04;4.53;;;4.13;;
15878;SDS011;61999;51.514;14.614;2023-05-07T08:36:34;4.47;;;4.07;;
15878;SDS011;61999;51.514;14.614;2023-05-07T08:39:02;5.00;;;4.53;;
15878;SDS011;61999;51.514;14.614;2023-05-07T08:41:30;4.77;;;4.37;;
15878;SDS011;61999;51.514;14.614;2023-05-07T08:43:59;4.27;;;3.87;;
15878;SDS011;61999;51.514;14.614;2023-05-07T08:46:31;3.93;;;3.63;;
15878;SDS011;61999;51.514;14.614;2023-05-07T08:48:59;4.03;;;3.67;;
15878;SDS011;61999;51.514;14.614;2023-05-07T08:51:28;4.33;;;3.73;;
15878;SDS011;61999;51.514;14.614;2023-05-07T08:53:56;4.13;;;3.73;;
15878;SDS011;61999;51.514;14.614;2023-05-07T08:56:25;3.60;;;3.30;;
15878;SDS011;61999;51.514;14.614;2023-05-07T08:58:52;5.40;;;4.27;;
15878;SDS011;61999;51.514;14.614;2023-05-07T09:01:22;3.93;;;3.63;;
15878;SDS011;61999;51.514;14.614;2023-05-07T09:03:53;3.93;;;3.63;;
15878;SDS011;61999;51.514;14.614;2023-05-07T09:06:21;5.00;;;4.60;;
15878;SDS011;61999;51.514;14.614;2023-05-07T09:08:50;5.30;;;4.80;;
15878;SDS011;61999;51.514;14.614;2023-05-07T09:11:19;4.53;;;4.13;;
15878;SDS011;61999;51.514;14.614;2023-05-07T09:13:49;4.10;;;3.70;;
15878;SDS011;61999;51.514;14.614;2023-05-07T09:16:23;3.37;;;3.07;;
15878;SDS011;61999;51.514;14.614;2023-05-07T09:18:54;3.40;;;3.10;;
15878;SDS011;61999;51.514;14.614;2023-05-07T09:21:22;3.60;;;3.30;;
15878;SDS011;61999;51.514;14.614;2023-05-07T09:23:50;4.80;;;3.27;;
15878;SDS011;61999;51.514;14.614;2023-05-07T09:26:20;3.50;;;3.20;;
15878;SDS011;61999;51.514;14.614;2023-05-07T09:28:49;3.73;;;3.37;;
15878;SDS011;61999;51.514;14.614;2023-05-07T09:31:17;3.80;;;3.50;;
15878;SDS011;61999;51.514;14.614;2023-05-07T09:33:46;4.17;;;3.63;;
15878;SDS011;61999;51.514;14.614;2023-05-07T09:36:15;4.00;;;3.60;;
15878;SDS011;61999;51.514;14.614;2023-05-07T09:38:43;3.17;;;2.90;;
15878;SDS011;61999;51.514;14.614;2023-05-07T09:41:13;2.93;;;2.73;;
15878;SDS011;61999;51.514;14.614;2023-05-07T09:43:41;3.13;;;2.90;;
15878;SDS011;61999;51.514;14.614;2023-05-07T09:46:11;3.30;;;3.10;;
15878;SDS011;61999;51.514;14.614;2023-05-07T09:48:41;3.80;;;3.50;;
15878;SDS011;61999;51.514;14.614;2023-05-07T09:51:14;3.53;;;3.20;;
15878;SDS011;61999;51.514;14.614;2023-05-07T09:53:49;3.47;;;3.17;;
15878;SDS011;61999;51.514;14.614;2023-05-07T09:56:19;3.27;;;2.97;;
15878;SDS011;61999;51.514;14.614;2023-05-07T09:58:49;3.00;;;2.80;;
15878;SDS011;61999;51.514;14.614;2023-05-07T10:01:21;2.97;;;2.57;;
15878;SDS011;61999;51.514;14.614;2023-05-07T10:03:52;4.27;;;3.10;;
15878;SDS011;61999;51.514;14.614;2023-05-07T10:06:23;3.33;;;3.10;;
15878;SDS011;61999;51.514;14.614;2023-05-07T10:08:52;3.97;;;3.53;;
15878;SDS011;61999;51.514;14.614;2023-05-07T10:11:22;4.00;;;3.57;;
15878;SDS011;61999;51.514;14.614;2023-05-07T10:13:50;4.10;;;3.77;;
15878;SDS011;61999;51.514;14.614;2023-05-07T10:16:20;2.97;;;2.77;;
15878;SDS011;61999;51.514;14.614;2023-05-07T10:18:49;3.13;;;2.87;;
15878;SDS011;61999;51.514;14.614;2023-05-07T10:21:19;3.43;;;3.13;;
15878;SDS011;61999;51.514;14.614;2023-05-07T10:23:51;3.40;;;3.10;;
15878;SDS011;61999;51.514;14.614;2023-05-07T10:26:25;3.70;;;3.40;;
15878;SDS011;61999;51.514;14.614;2023-05-07T10:28:58;3.80;;;3.50;;
15878;SDS011;61999;51.514;14.614;2023-05-07T10:31:52;5.47;;;4.33;;
15878;SDS011;61999;51.514;14.614;2023-05-07T10:34:34;4.43;;;4.03;;
15878;SDS011;61999;51.514;14.614;2023-05-07T10:37:10;4.80;;;4.40;;
15878;SDS011;61999;51.514;14.614;2023-05-07T10:39:39;3.97;;;3.67;;
15878;SDS011;61999;51.514;14.614;2023-05-07T10:42:08;4.90;;;4.47;;
15878;SDS011;61999;51.514;14.614;2023-05-07T10:44:38;5.10;;;4.60;;
15878;SDS011;61999;51.514;14.614;2023-05-07T10:47:06;4.47;;;4.07;;
15878;SDS011;61999;51.514;14.614;2023-05-07T10:49:36;4.67;;;4.13;;
15878;SDS011;61999;51.514;14.614;2023-05-07T10:52:45;4.33;;;3.93;;
15878;SDS011;61999;51.514;14.614;2023-05-07T10:55:50;4.97;;;3.77;;
15878;SDS011;61999;51.514;14.614;2023-05-07T10:58:39;5.20;;;4.67;;
15878;SDS011;61999;51.514;14.614;2023-05-07T11:01:07;6.37;;;5.30;;
15878;SDS011;61999;51.514;14.614;2023-05-07T11:03:36;6.10;;;5.50;;
15878;SDS011;61999;51.514;14.614;2023-05-07T11:07:08;5.87;;;5.27;;
15878;SDS011;61999;51.514;14.614;2023-05-07T11:12:54;5.77;;;5.30;;
15878;SDS011;61999;51.514;14.614;2023-05-07T11:15:41;6.67;;;5.97;;
15878;SDS011;61999;51.514;14.614;2023-05-07T11:18:12;5.60;;;5.03;;
15878;SDS011;61999;51.514;14.614;2023-05-07T11:20:50;5.93;;;5.43;;
15878;SDS011;61999;51.514;14.614;2023-05-07T11:26:29;5.60;;;5.10;;
15878;SDS011;61999;51.514;14.614;2023-05-07T11:28:59;5.97;;;5.37;;
15878;SDS011;61999;51.514;14.614;2023-05-07T11:31:28;5.63;;;5.13;;
15878;SDS011;61999;51.514;14.614;2023-05-07T11:33:56;6.23;;;5.73;;
15878;SDS011;61999;51.514;14.614;2023-05-07T11:36:25;5.10;;;4.70;;
15878;SDS011;61999;51.514;14.614;2023-05-07T11:38:59;5.60;;;5.20;;
15878;SDS011;61999;51.514;14.614;2023-05-07T11:41:34;6.20;;;5.60;;
15878;SDS011;61999;51.514;14.614;2023-05-07T11:44:03;5.23;;;4.80;;
15878;SDS011;61999;51.514;14.614;2023-05-07T11:46:31;6.30;;;5.80;;
15878;SDS011;61999;51.514;14.614;2023-05-07T11:49:00;6.23;;;5.70;;
15878;SDS011;61999;51.514;14.614;2023-05-07T11:51:29;5.77;;;5.37;;
15878;SDS011;61999;51.514;14.614;2023-05-07T11:53:58;6.10;;;5.60;;
15878;SDS011;61999;51.514;14.614;2023-05-07T11:56:26;6.13;;;5.63;;
15878;SDS011;61999;51.514;14.614;2023-05-07T11:58:55;5.80;;;5.27;;
15878;SDS011;61999;51.514;14.614;2023-05-07T12:01:23;6.33;;;5.83;;
15878;SDS011;61999;51.514;14.614;2023-05-07T12:03:51;6.17;;;5.67;;
15878;SDS011;61999;51.514;14.614;2023-05-07T12:06:19;6.03;;;5.53;;
15878;SDS011;61999;51.514;14.614;2023-05-07T12:08:47;5.87;;;5.37;;
15878;SDS011;61999;51.514;14.614;2023-05-07T12:11:15;6.57;;;6.07;;
15878;SDS011;61999;51.514;14.614;2023-05-07T12:13:51;6.10;;;5.50;;
15878;SDS011;61999;51.514;14.614;2023-05-07T12:16:24;6.83;;;6.23;;
15878;SDS011;61999;51.514;14.614;2023-05-07T12:18:53;5.53;;;5.00;;
15878;SDS011;61999;51.514;14.614;2023-05-07T12:21:22;5.90;;;5.33;;
15878;SDS011;61999;51.514;14.614;2023-05-07T12:23:51;6.07;;;5.47;;
15878;SDS011;61999;51.514;14.614;2023-05-07T12:26:19;6.80;;;6.20;;
15878;SDS011;61999;51.514;14.614;2023-05-07T12:28:48;6.83;;;6.00;;
15878;SDS011;61999;51.514;14.614;2023-05-07T12:31:17;5.77;;;5.30;;
15878;SDS011;61999;51.514;14.614;2023-05-07T12:33:45;5.73;;;5.23;;
15878;SDS011;61999;51.514;14.614;2023-05-07T12:36:13;5.63;;;5.23;;
15878;SDS011;61999;51.514;14.614;2023-05-07T12:38:42;5.00;;;4.60;;
15878;SDS011;61999;51.514;14.614;2023-05-07T12:41:10;5.40;;;5.00;;
15878;SDS011;61999;51.514;14.614;2023-05-07T12:43:39;5.10;;;4.70;;
15878;SDS011;61999;51.514;14.614;2023-05-07T12:46:11;5.70;;;5.20;;
15878;SDS011;61999;51.514;14.614;2023-05-07T12:48:44;5.50;;;5.07;;
15878;SDS011;61999;51.514;14.614;2023-05-07T12:51:12;7.20;;;6.50;;
15878;SDS011;61999;51.514;14.614;2023-05-07T12:53:42;7.30;;;6.70;;
15878;SDS011;61999;51.514;14.614;2023-05-07T12:56:10;5.30;;;4.90;;
15878;SDS011;61999;51.514;14.614;2023-05-07T12:58:38;3.77;;;3.47;;
15878;SDS011;61999;51.514;14.614;2023-05-07T13:01:06;5.00;;;4.60;;
15878;SDS011;61999;51.514;14.614;2023-05-07T13:03:36;4.80;;;4.40;;
15878;SDS011;61999;51.514;14.614;2023-05-07T13:06:07;4.67;;;4.37;;
15878;SDS011;61999;51.514;14.614;2023-05-07T13:08:39;4.90;;;4.50;;
15878;SDS011;61999;51.514;14.614;2023-05-07T13:11:09;5.27;;;4.80;;
15878;SDS011;61999;51.514;14.614;2023-05-07T13:13:39;4.63;;;4.20;;
15878;SDS011;61999;51.514;14.614;2023-05-07T13:16:09;4.33;;;4.03;;
15878;SDS011;61999;51.514;14.614;2023-05-07T13:18:38;4.83;;;4.43;;
15878;SDS011;61999;51.514;14.614;2023-05-07T13:21:11;5.40;;;4.90;;
15878;SDS011;61999;51.514;14.614;2023-05-07T13:23:40;5.10;;;4.70;;
15878;SDS011;61999;51.514;14.614;2023-05-07T13:26:08;4.63;;;4.23;;
15878;SDS011;61999;51.514;14.614;2023-05-07T13:28:40;4.40;;;4.00;;
15878;SDS011;61999;51.514;14.614;2023-05-07T13:31:08;4.53;;;4.13;;
15878;SDS011;61999;51.514;14.614;2023-05-07T13:33:36;5.30;;;4.00;;
15878;SDS011;61999;51.514;14.614;2023-05-07T13:36:04;5.50;;;5.10;;
15878;SDS011;61999;51.514;14.614;2023-05-07T13:38:34;4.57;;;4.23;;
15878;SDS011;61999;51.514;14.614;2023-05-07T13:41:02;5.03;;;4.63;;
15878;SDS011;61999;51.514;14.614;2023-05-07T13:43:30;4.30;;;4.00;;
15878;SDS011;61999;51.514;14.614;2023-05-07T13:45:59;5.30;;;4.90;;
15878;SDS011;61999;51.514;14.614;2023-05-07T13:48:27;6.77;;;5.90;;
15878;SDS011;61999;51.514;14.614;2023-05-07T13:50:56;8.70;;;7.90;;
15878;SDS011;61999;51.514;14.614;2023-05-07T13:53:24;18.10;;;12.93;;
15878;SDS011;61999;51.514;14.614;2023-05-07T13:55:53;19.00;;;17.20;;
15878;SDS011;61999;51.514;14.614;2023-05-07T13:58:21;6.33;;;5.83;;
15878;SDS011;61999;51.514;14.614;2023-05-07T14:00:49;5.17;;;4.70;;
15878;SDS011;61999;51.514;14.614;2023-05-07T14:03:17;5.07;;;4.67;;
15878;SDS011;61999;51.514;14.614;2023-05-07T14:05:45;5.30;;;4.90;;
15878;SDS011;61999;51.514;14.614;2023-05-07T14:08:15;4.80;;;4.40;;
15878;SDS011;61999;51.514;14.614;2023-05-07T14:10:45;4.43;;;4.03;;
15878;SDS011;61999;51.514;14.614;2023-05-07T14:13:15;4.73;;;4.20;;
15878;SDS011;61999;51.514;14.614;2023-05-07T14:15:42;4.80;;;4.40;;
15878;SDS011;61999;51.514;14.614;2023-05-07T14:18:12;4.60;;;4.30;;
15878;SDS011;61999;51.514;14.614;2023-05-07T14:20:40;4.30;;;3.90;;
15878;SDS011;61999;51.514;14.614;2023-05-07T14:23:09;4.50;;;4.20;;
15878;SDS011;61999;51.514;14.614;2023-05-07T14:25:37;4.37;;;4.07;;
15878;SDS011;61999;51.514;14.614;2023-05-07T14:28:05;4.40;;;4.10;;
15878;SDS011;61999;51.514;14.614;2023-05-07T14:30:35;4.73;;;4.33;;
15878;SDS011;61999;51.514;14.614;2023-05-07T14:33:03;4.50;;;4.20;;
15878;SDS011;61999;51.514;14.614;2023-05-07T14:35:31;5.13;;;4.70;;
15878;SDS011;61999;51.514;14.614;2023-05-07T14:37:59;5.30;;;4.80;;
15878;SDS011;61999;51.514;14.614;2023-05-07T14:40:27;5.53;;;5.03;;
15878;SDS011;61999;51.514;14.614;2023-05-07T14:42:55;4.83;;;4.50;;
15878;SDS011;61999;51.514;14.614;2023-05-07T14:45:23;5.10;;;4.73;;
15878;SDS011;61999;51.514;14.614;2023-05-07T14:47:53;4.90;;;4.50;;
15878;SDS011;61999;51.514;14.614;2023-05-07T14:50:21;4.83;;;4.40;;
15878;SDS011;61999;51.514;14.614;2023-05-07T14:52:49;4.77;;;4.43;;